sensor_id;sensor_type;location;lat;lon;timestamp;pressure;altitude;pressure_sealevel;temperature;humidity
35435;BME280;21556;55.782;37.528;2023-04-19T00:00:39;100621.47;;;12.64;40.81
35435;BME280;21556;55.782;37.528;2023-04-19T00:03:06;100621.75;;;12.39;41.39
35435;BME280;21556;55.782;37.528;2023-04-19T00:05:37;100616.41;;;12.36;41.43
35435;BME280;21556;55.782;37.528;2023-04-19T00:08:06;100618.78;;;12.63;41.33
35435;BME280;21556;55.782;37.528;2023-04-19T00:10:36;100619.75;;;12.66;40.99
35435;BME280;21556;55.782;37.528;2023-04-19T00:13:06;100620.09;;;12.44;41.44
35435;BME280;21556;55.782;37.528;2023-04-19T00:15:32;100634.78;;;12.34;41.57
35435;BME280;21556;55.782;37.528;2023-04-19T00:17:59;100621.22;;;12.53;40.89
35435;BME280;21556;55.782;37.528;2023-04-19T00:20:28;100632.16;;;12.34;41.32
35435;BME280;21556;55.782;37.528;2023-04-19T00:22:54;100631.41;;;12.40;40.94
35435;BME280;21556;55.782;37.528;2023-04-19T00:25:20;100632.41;;;12.09;41.59
35435;BME280;21556;55.782;37.528;2023-04-19T00:27:46;100636.22;;;11.87;41.98
35435;BME280;21556;55.782;37.528;2023-04-19T00:30:12;100629.94;;;12.15;41.64
35435;BME280;21556;55.782;37.528;2023-04-19T00:32:40;100624.47;;;12.42;41.03
35435;BME280;21556;55.782;37.528;2023-04-19T00:35:09;100637.16;;;12.23;41.06
35435;BME280;21556;55.782;37.528;2023-04-19T00:37:38;100630.72;;;12.12;41.18
35435;BME280;21556;55.782;37.528;2023-04-19T00:40:07;100622.72;;;12.42;40.73
35435;BME280;21556;55.782;37.528;2023-04-19T00:42:42;100629.81;;;12.10;41.10
35435;BME280;21556;55.782;37.528;2023-04-19T00:45:08;100631.28;;;11.99;41.98
35435;BME280;21556;55.782;37.528;2023-04-19T00:47:37;100634.97;;;12.06;41.30
35435;BME280;21556;55.782;37.528;2023-04-19T00:50:04;100637.72;;;12.10;41.25
35435;BME280;21556;55.782;37.528;2023-04-19T00:52:34;100639.03;;;12.27;41.07
35435;BME280;21556;55.782;37.528;2023-04-19T00:55:00;100639.88;;;12.26;40.79
35435;BME280;21556;55.782;37.528;2023-04-19T00:57:30;100648.34;;;12.15;40.97
35435;BME280;21556;55.782;37.528;2023-04-19T00:59:56;100644.72;;;11.76;41.96
35435;BME280;21556;55.782;37.528;2023-04-19T01:02:22;100638.34;;;12.01;41.62
35435;BME280;21556;55.782;37.528;2023-04-19T01:04:48;100638.72;;;12.15;40.82
35435;BME280;21556;55.782;37.528;2023-04-19T01:07:14;100646.31;;;11.71;41.82
35435;BME280;21556;55.782;37.528;2023-04-19T01:09:48;100640.00;;;11.98;41.14
35435;BME280;21556;55.782;37.528;2023-04-19T01:12:17;100644.63;;;12.07;41.16
35435;BME280;21556;55.782;37.528;2023-04-19T01:14:43;100639.84;;;12.25;40.71
35435;BME280;21556;55.782;37.528;2023-04-19T01:17:09;100657.63;;;12.00;41.08
35435;BME280;21556;55.782;37.528;2023-04-19T01:19:35;100643.31;;;11.89;41.48
35435;BME280;21556;55.782;37.528;2023-04-19T01:22:04;100643.09;;;12.15;40.93
35435;BME280;21556;55.782;37.528;2023-04-19T01:24:32;100647.47;;;12.16;40.73
35435;BME280;21556;55.782;37.528;2023-04-19T01:26:58;100651.00;;;12.16;40.63
35435;BME280;21556;55.782;37.528;2023-04-19T01:29:26;100648.59;;;11.91;41.22
35435;BME280;21556;55.782;37.528;2023-04-19T01:31:55;100642.38;;;12.20;40.84
35435;BME280;21556;55.782;37.528;2023-04-19T01:34:23;100641.91;;;12.02;40.89
35435;BME280;21556;55.782;37.528;2023-04-19T01:36:48;100645.53;;;11.75;41.40
35435;BME280;21556;55.782;37.528;2023-04-19T01:39:14;100648.31;;;11.48;42.03
35435;BME280;21556;55.782;37.528;2023-04-19T01:41:41;100644.72;;;11.45;42.35
35435;BME280;21556;55.782;37.528;2023-04-19T01:44:08;100642.97;;;11.45;42.55
35435;BME280;21556;55.782;37.528;2023-04-19T01:46:36;100644.53;;;11.39;43.04
35435;BME280;21556;55.782;37.528;2023-04-19T01:49:06;100648.69;;;11.30;43.08
35435;BME280;21556;55.782;37.528;2023-04-19T01:51:32;100647.09;;;11.69;42.78
35435;BME280;21556;55.782;37.528;2023-04-19T01:54:00;100644.13;;;11.25;43.15
35435;BME280;21556;55.782;37.528;2023-04-19T01:56:27;100640.13;;;11.69;42.75
35435;BME280;21556;55.782;37.528;2023-04-19T01:58:53;100643.16;;;11.51;43.08
35435;BME280;21556;55.782;37.528;2023-04-19T02:01:19;100644.97;;;11.24;43.48
35435;BME280;21556;55.782;37.528;2023-04-19T02:03:45;100646.28;;;11.38;43.30
35435;BME280;21556;55.782;37.528;2023-04-19T02:06:12;100639.03;;;11.29;43.87
35435;BME280;21556;55.782;37.528;2023-04-19T02:08:41;100643.44;;;11.30;43.88
35435;BME280;21556;55.782;37.528;2023-04-19T02:11:08;100642.41;;;11.57;43.11
35435;BME280;21556;55.782;37.528;2023-04-19T02:13:35;100640.03;;;11.66;43.29
35435;BME280;21556;55.782;37.528;2023-04-19T02:16:02;100640.22;;;11.41;43.73
35435;BME280;21556;55.782;37.528;2023-04-19T02:18:28;100641.19;;;11.14;44.54
35435;BME280;21556;55.782;37.528;2023-04-19T02:20:58;100636.09;;;11.19;44.29
35435;BME280;21556;55.782;37.528;2023-04-19T02:23:24;100643.59;;;11.68;43.47
35435;BME280;21556;55.782;37.528;2023-04-19T02:25:50;100645.72;;;11.50;43.71
35435;BME280;21556;55.782;37.528;2023-04-19T02:28:16;100643.56;;;11.67;43.50
35435;BME280;21556;55.782;37.528;2023-04-19T02:30:43;100647.28;;;11.75;43.39
35435;BME280;21556;55.782;37.528;2023-04-19T02:33:09;100644.66;;;11.43;44.69
35435;BME280;21556;55.782;37.528;2023-04-19T02:35:35;100647.97;;;11.68;43.92
35435;BME280;21556;55.782;37.528;2023-04-19T02:38:02;100656.03;;;11.75;43.92
35435;BME280;21556;55.782;37.528;2023-04-19T02:40:28;100655.38;;;11.82;43.78
35435;BME280;21556;55.782;37.528;2023-04-19T02:42:58;100649.22;;;11.50;44.33
35435;BME280;21556;55.782;37.528;2023-04-19T02:45:24;100653.97;;;11.64;43.94
35435;BME280;21556;55.782;37.528;2023-04-19T02:47:50;100652.28;;;11.34;45.02
35435;BME280;21556;55.782;37.528;2023-04-19T02:50:18;100652.59;;;11.76;44.21
35435;BME280;21556;55.782;37.528;2023-04-19T02:52:48;100658.38;;;11.65;44.77
35435;BME280;21556;55.782;37.528;2023-04-19T02:55:13;100656.16;;;11.80;43.91
35435;BME280;21556;55.782;37.528;2023-04-19T02:57:39;100664.97;;;11.19;45.20
35435;BME280;21556;55.782;37.528;2023-04-19T03:00:08;100657.25;;;11.55;44.94
35435;BME280;21556;55.782;37.528;2023-04-19T03:02:36;100659.72;;;11.49;44.52
35435;BME280;21556;55.782;37.528;2023-04-19T03:05:05;100662.88;;;11.37;44.86
35435;BME280;21556;55.782;37.528;2023-04-19T03:07:31;100657.00;;;11.46;44.59
35435;BME280;21556;55.782;37.528;2023-04-19T03:09:57;100659.75;;;11.50;44.33
35435;BME280;21556;55.782;37.528;2023-04-19T03:12:24;100664.06;;;11.18;44.97
35435;BME280;21556;55.782;37.528;2023-04-19T03:14:50;100659.88;;;10.95;46.10
35435;BME280;21556;55.782;37.528;2023-04-19T03:17:16;100657.25;;;11.25;45.70
35435;BME280;21556;55.782;37.528;2023-04-19T03:19:43;100661.19;;;11.39;44.79
35435;BME280;21556;55.782;37.528;2023-04-19T03:22:10;100659.53;;;11.74;44.06
35435;BME280;21556;55.782;37.528;2023-04-19T03:24:37;100660.84;;;11.27;44.40
35435;BME280;21556;55.782;37.528;2023-04-19T03:27:15;100663.03;;;11.43;44.68
35435;BME280;21556;55.782;37.528;2023-04-19T03:29:45;100663.25;;;11.51;44.20
35435;BME280;21556;55.782;37.528;2023-04-19T03:32:11;100656.91;;;11.43;44.29
35435;BME280;21556;55.782;37.528;2023-04-19T03:34:37;100663.00;;;11.42;44.69
35435;BME280;21556;55.782;37.528;2023-04-19T03:37:03;100666.84;;;11.23;44.68
35435;BME280;21556;55.782;37.528;2023-04-19T03:39:33;100665.94;;;11.52;44.71
35435;BME280;21556;55.782;37.528;2023-04-19T03:42:02;100667.97;;;11.32;45.34
35435;BME280;21556;55.782;37.528;2023-04-19T03:44:47;100668.25;;;11.42;44.84
35435;BME280;21556;55.782;37.528;2023-04-19T03:47:15;100668.16;;;11.39;44.68
35435;BME280;21556;55.782;37.528;2023-04-19T03:49:45;100664.00;;;11.45;44.32
35435;BME280;21556;55.782;37.528;2023-04-19T03:52:11;100662.97;;;11.40;45.38
35435;BME280;21556;55.782;37.528;2023-04-19T03:54:37;100674.50;;;11.45;44.85
35435;BME280;21556;55.782;37.528;2023-04-19T03:57:11;100669.22;;;11.44;44.59
35435;BME280;21556;55.782;37.528;2023-04-19T03:59:48;100664.91;;;11.79;43.67
35435;BME280;21556;55.782;37.528;2023-04-19T04:02:26;100663.72;;;11.68;44.35
35435;BME280;21556;55.782;37.528;2023-04-19T04:04:54;100660.69;;;11.52;44.60
35435;BME280;21556;55.782;37.528;2023-04-19T04:07:21;100671.13;;;11.51;44.59
35435;BME280;21556;55.782;37.528;2023-04-19T04:09:48;100667.91;;;11.91;43.70
35435;BME280;21556;55.782;37.528;2023-04-19T04:12:14;100672.66;;;11.73;43.96
35435;BME280;21556;55.782;37.528;2023-04-19T04:14:41;100671.38;;;11.90;43.65
35435;BME280;21556;55.782;37.528;2023-04-19T04:17:09;100669.19;;;11.75;43.66
35435;BME280;21556;55.782;37.528;2023-04-19T04:19:36;100668.63;;;11.86;43.37
35435;BME280;21556;55.782;37.528;2023-04-19T04:22:02;100665.09;;;11.53;44.06
35435;BME280;21556;55.782;37.528;2023-04-19T04:24:37;100671.88;;;11.77;43.89
35435;BME280;21556;55.782;37.528;2023-04-19T04:27:19;100669.41;;;11.83;43.55
35435;BME280;21556;55.782;37.528;2023-04-19T04:29:50;100670.06;;;11.76;43.61
35435;BME280;21556;55.782;37.528;2023-04-19T04:32:17;100668.03;;;11.96;43.28
35435;BME280;21556;55.782;37.528;2023-04-19T04:34:49;100678.44;;;11.61;44.18
35435;BME280;21556;55.782;37.528;2023-04-19T04:37:25;100673.44;;;11.70;44.13
35435;BME280;21556;55.782;37.528;2023-04-19T04:39:52;100680.59;;;11.76;44.01
35435;BME280;21556;55.782;37.528;2023-04-19T04:42:21;100680.69;;;12.11;42.99
35435;BME280;21556;55.782;37.528;2023-04-19T04:44:46;100684.88;;;12.02;43.37
35435;BME280;21556;55.782;37.528;2023-04-19T04:47:13;100682.88;;;11.94;43.69
35435;BME280;21556;55.782;37.528;2023-04-19T04:49:45;100685.97;;;12.12;43.04
35435;BME280;21556;55.782;37.528;2023-04-19T04:52:12;100680.97;;;12.21;42.73
35435;BME280;21556;55.782;37.528;2023-04-19T04:54:51;100682.91;;;12.30;43.03
35435;BME280;21556;55.782;37.528;2023-04-19T04:57:26;100681.84;;;12.22;42.97
35435;BME280;21556;55.782;37.528;2023-04-19T04:59:51;100688.00;;;12.57;42.97
35435;BME280;21556;55.782;37.528;2023-04-19T05:02:19;100682.97;;;12.32;42.97
35435;BME280;21556;55.782;37.528;2023-04-19T05:04:48;100682.13;;;12.69;42.78
35435;BME280;21556;55.782;37.528;2023-04-19T05:07:14;100683.41;;;12.86;42.45
35435;BME280;21556;55.782;37.528;2023-04-19T05:09:40;100691.44;;;12.92;42.41
35435;BME280;21556;55.782;37.528;2023-04-19T05:12:06;100696.84;;;12.61;43.46
35435;BME280;21556;55.782;37.528;2023-04-19T05:14:32;100688.50;;;12.79;42.91
35435;BME280;21556;55.782;37.528;2023-04-19T05:17:00;100692.28;;;12.90;41.94
35435;BME280;21556;55.782;37.528;2023-04-19T05:19:47;100694.66;;;12.79;42.23
35435;BME280;21556;55.782;37.528;2023-04-19T05:22:12;100701.97;;;12.56;42.98
35435;BME280;21556;55.782;37.528;2023-04-19T05:24:38;100693.69;;;12.75;42.74
35435;BME280;21556;55.782;37.528;2023-04-19T05:27:05;100697.06;;;12.70;42.76
35435;BME280;21556;55.782;37.528;2023-04-19T05:29:31;100696.31;;;12.75;42.51
35435;BME280;21556;55.782;37.528;2023-04-19T05:31:57;100695.22;;;13.04;42.38
35435;BME280;21556;55.782;37.528;2023-04-19T05:34:33;100697.22;;;13.15;42.17
35435;BME280;21556;55.782;37.528;2023-04-19T05:37:01;100695.81;;;13.30;41.70
35435;BME280;21556;55.782;37.528;2023-04-19T05:39:42;100696.47;;;13.21;41.40
35435;BME280;21556;55.782;37.528;2023-04-19T05:42:09;100699.72;;;13.94;40.79
35435;BME280;21556;55.782;37.528;2023-04-19T05:44:35;100700.97;;;14.13;39.82
35435;BME280;21556;55.782;37.528;2023-04-19T05:47:01;100701.38;;;13.87;39.86
35435;BME280;21556;55.782;37.528;2023-04-19T05:50:05;100694.88;;;14.17;39.39
35435;BME280;21556;55.782;37.528;2023-04-19T05:53:10;100684.38;;;14.72;38.51
35435;BME280;21556;55.782;37.528;2023-04-19T05:55:39;100696.53;;;14.62;38.55
35435;BME280;21556;55.782;37.528;2023-04-19T05:58:22;100701.81;;;14.60;37.82
35435;BME280;21556;55.782;37.528;2023-04-19T06:00:52;100684.59;;;14.85;37.95
35435;BME280;21556;55.782;37.528;2023-04-19T06:03:20;100698.63;;;14.83;37.56
35435;BME280;21556;55.782;37.528;2023-04-19T06:05:46;100694.50;;;14.45;37.66
35435;BME280;21556;55.782;37.528;2023-04-19T06:08:12;100700.94;;;14.60;37.62
35435;BME280;21556;55.782;37.528;2023-04-19T06:14:01;100689.94;;;15.57;36.04
35435;BME280;21556;55.782;37.528;2023-04-19T06:16:27;100691.59;;;15.47;36.27
35435;BME280;21556;55.782;37.528;2023-04-19T06:18:53;100695.50;;;15.77;35.36
35435;BME280;21556;55.782;37.528;2023-04-19T06:21:19;100692.34;;;16.15;34.93
35435;BME280;21556;55.782;37.528;2023-04-19T06:23:46;100694.59;;;15.75;35.41
35435;BME280;21556;55.782;37.528;2023-04-19T06:26:13;100682.06;;;16.48;34.42
35435;BME280;21556;55.782;37.528;2023-04-19T06:28:39;100674.22;;;16.60;34.18
35435;BME280;21556;55.782;37.528;2023-04-19T06:31:05;100690.06;;;16.54;33.63
35435;BME280;21556;55.782;37.528;2023-04-19T06:33:31;100689.31;;;16.72;33.55
35435;BME280;21556;55.782;37.528;2023-04-19T06:35:57;100680.00;;;17.42;32.70
35435;BME280;21556;55.782;37.528;2023-04-19T06:38:23;100673.75;;;17.23;31.92
35435;BME280;21556;55.782;37.528;2023-04-19T06:40:49;100674.03;;;17.87;31.42
35435;BME280;21556;55.782;37.528;2023-04-19T06:43:15;100671.41;;;18.06;30.94
35435;BME280;21556;55.782;37.528;2023-04-19T06:45:41;100667.84;;;18.94;30.10
35435;BME280;21556;55.782;37.528;2023-04-19T06:48:07;100669.59;;;18.95;29.37
35435;BME280;21556;55.782;37.528;2023-04-19T06:50:33;100671.44;;;18.71;28.72
35435;BME280;21556;55.782;37.528;2023-04-19T06:52:58;100658.50;;;20.05;26.90
35435;BME280;21556;55.782;37.528;2023-04-19T06:55:27;100659.31;;;20.13;27.10
35435;BME280;21556;55.782;37.528;2023-04-19T06:57:52;100650.97;;;20.61;26.29
35435;BME280;21556;55.782;37.528;2023-04-19T07:00:18;100646.47;;;20.64;25.64
35435;BME280;21556;55.782;37.528;2023-04-19T07:02:45;100637.97;;;20.18;24.78
35435;BME280;21556;55.782;37.528;2023-04-19T07:05:10;100625.47;;;21.83;23.82
35435;BME280;21556;55.782;37.528;2023-04-19T07:07:37;100638.13;;;21.72;23.69
35435;BME280;21556;55.782;37.528;2023-04-19T07:10:09;100631.84;;;21.04;23.54
35435;BME280;21556;55.782;37.528;2023-04-19T07:12:37;100645.09;;;21.11;23.43
35435;BME280;21556;55.782;37.528;2023-04-19T07:15:05;100634.47;;;21.05;23.47
35435;BME280;21556;55.782;37.528;2023-04-19T07:17:33;100635.78;;;20.67;23.58
35435;BME280;21556;55.782;37.528;2023-04-19T07:19:59;100622.94;;;21.74;22.84
35435;BME280;21556;55.782;37.528;2023-04-19T07:22:26;100636.63;;;20.70;23.35
35435;BME280;21556;55.782;37.528;2023-04-19T07:24:53;100633.03;;;21.52;22.80
35435;BME280;21556;55.782;37.528;2023-04-19T07:27:19;100634.38;;;21.13;23.19
35435;BME280;21556;55.782;37.528;2023-04-19T07:29:45;100635.03;;;21.35;22.92
35435;BME280;21556;55.782;37.528;2023-04-19T07:32:11;100630.19;;;20.90;22.84
35435;BME280;21556;55.782;37.528;2023-04-19T07:34:39;100621.22;;;20.99;23.16
35435;BME280;21556;55.782;37.528;2023-04-19T07:37:06;100624.22;;;20.68;23.52
35435;BME280;21556;55.782;37.528;2023-04-19T07:39:32;100628.66;;;20.68;23.40
35435;BME280;21556;55.782;37.528;2023-04-19T07:41:58;100621.75;;;21.27;22.37
35435;BME280;21556;55.782;37.528;2023-04-19T07:44:25;100627.28;;;21.83;22.69
35435;BME280;21556;55.782;37.528;2023-04-19T07:46:51;100624.75;;;21.71;22.31
35435;BME280;21556;55.782;37.528;2023-04-19T07:49:18;100613.81;;;21.89;22.45
35435;BME280;21556;55.782;37.528;2023-04-19T07:51:44;100613.16;;;22.81;21.43
35435;BME280;21556;55.782;37.528;2023-04-19T07:54:10;100614.28;;;22.68;21.73
35435;BME280;21556;55.782;37.528;2023-04-19T07:56:37;100618.69;;;22.71;21.61
35435;BME280;21556;55.782;37.528;2023-04-19T07:59:03;100624.94;;;22.71;22.08
35435;BME280;21556;55.782;37.528;2023-04-19T08:01:29;100621.03;;;23.34;21.42
35435;BME280;21556;55.782;37.528;2023-04-19T08:03:55;100617.56;;;22.82;21.74
35435;BME280;21556;55.782;37.528;2023-04-19T08:06:21;100617.13;;;23.49;21.69
35435;BME280;21556;55.782;37.528;2023-04-19T08:08:47;100603.72;;;23.49;21.52
35435;BME280;21556;55.782;37.528;2023-04-19T08:11:13;100599.13;;;23.55;21.47
35435;BME280;21556;55.782;37.528;2023-04-19T08:13:39;100608.56;;;23.75;20.92
35435;BME280;21556;55.782;37.528;2023-04-19T08:16:06;100599.38;;;24.21;20.08
35435;BME280;21556;55.782;37.528;2023-04-19T08:18:32;100600.22;;;24.59;19.98
35435;BME280;21556;55.782;37.528;2023-04-19T08:21:00;100605.06;;;23.71;20.93
35435;BME280;21556;55.782;37.528;2023-04-19T08:23:26;100617.25;;;23.02;21.22
35435;BME280;21556;55.782;37.528;2023-04-19T08:25:53;100614.72;;;23.37;20.96
35435;BME280;21556;55.782;37.528;2023-04-19T08:28:19;100620.06;;;23.37;21.35
35435;BME280;21556;55.782;37.528;2023-04-19T08:30:45;100615.44;;;23.45;21.32
35435;BME280;21556;55.782;37.528;2023-04-19T08:33:12;100612.06;;;23.77;21.36
35435;BME280;21556;55.782;37.528;2023-04-19T08:35:38;100616.88;;;23.61;20.97
35435;BME280;21556;55.782;37.528;2023-04-19T08:38:06;100614.63;;;23.82;20.75
35435;BME280;21556;55.782;37.528;2023-04-19T08:40:33;100613.69;;;23.84;20.58
35435;BME280;21556;55.782;37.528;2023-04-19T08:42:59;100601.19;;;24.20;20.72
35435;BME280;21556;55.782;37.528;2023-04-19T08:45:31;100604.13;;;23.30;21.32
35435;BME280;21556;55.782;37.528;2023-04-19T08:47:58;100603.19;;;24.12;21.18
35435;BME280;21556;55.782;37.528;2023-04-19T08:50:26;100608.09;;;24.65;20.40
35435;BME280;21556;55.782;37.528;2023-04-19T08:52:53;100596.13;;;25.09;20.24
35435;BME280;21556;55.782;37.528;2023-04-19T08:55:20;100594.94;;;24.56;20.66
35435;BME280;21556;55.782;37.528;2023-04-19T08:57:49;100602.13;;;24.18;21.35
35435;BME280;21556;55.782;37.528;2023-04-19T09:00:15;100598.91;;;24.41;20.64
35435;BME280;21556;55.782;37.528;2023-04-19T09:02:51;100621.84;;;23.38;21.24
35435;BME280;21556;55.782;37.528;2023-04-19T09:05:19;100618.56;;;23.23;21.75
35435;BME280;21556;55.782;37.528;2023-04-19T09:07:46;100618.28;;;22.94;21.77
35435;BME280;21556;55.782;37.528;2023-04-19T09:10:16;100615.22;;;23.14;21.79
35435;BME280;21556;55.782;37.528;2023-04-19T09:13:03;100605.97;;;22.83;22.00
35435;BME280;21556;55.782;37.528;2023-04-19T09:15:39;100607.19;;;23.14;21.81
35435;BME280;21556;55.782;37.528;2023-04-19T09:18:09;100610.44;;;23.71;21.13
35435;BME280;21556;55.782;37.528;2023-04-19T09:20:42;100603.59;;;23.15;21.60
35435;BME280;21556;55.782;37.528;2023-04-19T09:23:18;100588.72;;;24.18;20.88
35435;BME280;21556;55.782;37.528;2023-04-19T09:25:52;100576.97;;;24.23;20.60
35435;BME280;21556;55.782;37.528;2023-04-19T09:28:19;100592.75;;;24.36;20.36
35435;BME280;21556;55.782;37.528;2023-04-19T09:30:45;100579.25;;;24.39;20.49
35435;BME280;21556;55.782;37.528;2023-04-19T09:33:12;100594.97;;;23.42;21.19
35435;BME280;21556;55.782;37.528;2023-04-19T09:35:44;100589.28;;;23.16;21.33
35435;BME280;21556;55.782;37.528;2023-04-19T09:38:12;100580.47;;;23.91;21.77
35435;BME280;21556;55.782;37.528;2023-04-19T09:40:42;100583.31;;;23.45;21.54
35435;BME280;21556;55.782;37.528;2023-04-19T09:43:11;100576.31;;;24.15;21.29
35435;BME280;21556;55.782;37.528;2023-04-19T09:45:42;100578.28;;;23.71;20.67
35435;BME280;21556;55.782;37.528;2023-04-19T09:48:11;100581.19;;;23.61;21.52
35435;BME280;21556;55.782;37.528;2023-04-19T09:50:58;100572.09;;;24.41;21.04
35435;BME280;21556;55.782;37.528;2023-04-19T09:53:26;100570.16;;;24.47;21.28
35435;BME280;21556;55.782;37.528;2023-04-19T09:55:55;100570.00;;;23.81;22.14
35435;BME280;21556;55.782;37.528;2023-04-19T09:58:24;100572.00;;;23.72;22.10
35435;BME280;21556;55.782;37.528;2023-04-19T10:00:52;100567.31;;;24.85;21.52
35435;BME280;21556;55.782;37.528;2023-04-19T10:03:26;100578.75;;;23.48;21.49
35435;BME280;21556;55.782;37.528;2023-04-19T10:05:54;100578.59;;;23.16;21.41
35435;BME280;21556;55.782;37.528;2023-04-19T10:08:20;100563.06;;;24.09;20.99
35435;BME280;21556;55.782;37.528;2023-04-19T10:10:46;100571.28;;;23.64;21.87
35435;BME280;21556;55.782;37.528;2023-04-19T10:13:20;100557.13;;;24.31;21.53
35435;BME280;21556;55.782;37.528;2023-04-19T10:15:48;100564.53;;;24.21;21.67
35435;BME280;21556;55.782;37.528;2023-04-19T10:18:14;100567.25;;;23.84;22.12
35435;BME280;21556;55.782;37.528;2023-04-19T10:23:15;100564.09;;;24.38;21.57
35435;BME280;21556;55.782;37.528;2023-04-19T10:25:46;100558.75;;;24.02;21.59
35435;BME280;21556;55.782;37.528;2023-04-19T10:28:14;100571.19;;;23.69;22.00
35435;BME280;21556;55.782;37.528;2023-04-19T10:30:57;100553.94;;;23.81;21.90
35435;BME280;21556;55.782;37.528;2023-04-19T10:33:26;100552.25;;;24.12;21.47
35435;BME280;21556;55.782;37.528;2023-04-19T10:35:57;100550.84;;;24.97;21.36
35435;BME280;21556;55.782;37.528;2023-04-19T10:38:40;100549.78;;;24.71;21.23
35435;BME280;21556;55.782;37.528;2023-04-19T10:41:12;100537.50;;;25.25;20.39
35435;BME280;21556;55.782;37.528;2023-04-19T10:48:57;100556.50;;;23.06;22.21
35435;BME280;21556;55.782;37.528;2023-04-19T10:51:37;100552.53;;;22.34;22.85
35435;BME280;21556;55.782;37.528;2023-04-19T10:54:06;100561.16;;;21.97;23.14
35435;BME280;21556;55.782;37.528;2023-04-19T11:02:01;100553.31;;;21.85;23.68
35435;BME280;21556;55.782;37.528;2023-04-19T11:07:06;100553.16;;;21.96;23.63
35435;BME280;21556;55.782;37.528;2023-04-19T11:09:39;100549.94;;;21.75;23.91
35435;BME280;21556;55.782;37.528;2023-04-19T11:12:16;100561.22;;;21.35;24.25
35435;BME280;21556;55.782;37.528;2023-04-19T11:14:57;100549.47;;;21.46;23.86
35435;BME280;21556;55.782;37.528;2023-04-19T11:17:32;100549.94;;;21.10;24.47
35435;BME280;21556;55.782;37.528;2023-04-19T11:25:19;100542.31;;;20.80;24.59
35435;BME280;21556;55.782;37.528;2023-04-19T11:27:51;100546.44;;;21.07;24.27
35435;BME280;21556;55.782;37.528;2023-04-19T11:30:22;100544.16;;;20.75;24.33
35435;BME280;21556;55.782;37.528;2023-04-19T11:32:57;100545.63;;;20.99;24.48
35435;BME280;21556;55.782;37.528;2023-04-19T11:35:26;100556.63;;;20.73;24.67
35435;BME280;21556;55.782;37.528;2023-04-19T11:37:54;100547.38;;;20.23;25.15
35435;BME280;21556;55.782;37.528;2023-04-19T11:40:22;100547.22;;;20.38;24.63
35435;BME280;21556;55.782;37.528;2023-04-19T11:42:55;100549.34;;;20.87;24.60
35435;BME280;21556;55.782;37.528;2023-04-19T11:45:36;100536.28;;;20.64;24.62
35435;BME280;21556;55.782;37.528;2023-04-19T11:48:12;100532.81;;;20.57;24.49
35435;BME280;21556;55.782;37.528;2023-04-19T11:50:44;100523.91;;;20.60;24.58
35435;BME280;21556;55.782;37.528;2023-04-19T11:55:49;100524.50;;;20.85;24.00
35435;BME280;21556;55.782;37.528;2023-04-19T11:58:36;100525.53;;;20.72;24.39
35435;BME280;21556;55.782;37.528;2023-04-19T12:01:11;100526.22;;;20.89;24.28
35435;BME280;21556;55.782;37.528;2023-04-19T12:03:50;100531.41;;;20.18;24.39
35435;BME280;21556;55.782;37.528;2023-04-19T12:06:27;100523.97;;;20.55;24.21
35435;BME280;21556;55.782;37.528;2023-04-19T12:08:56;100524.00;;;20.46;24.11
35435;BME280;21556;55.782;37.528;2023-04-19T12:11:41;100531.75;;;19.75;24.92
35435;BME280;21556;55.782;37.528;2023-04-19T12:14:16;100528.97;;;19.93;24.84
35435;BME280;21556;55.782;37.528;2023-04-19T12:16:44;100512.28;;;19.73;24.83
35435;BME280;21556;55.782;37.528;2023-04-19T12:21:43;100516.06;;;20.44;24.41
35435;BME280;21556;55.782;37.528;2023-04-19T12:24:09;100510.78;;;20.38;24.29
35435;BME280;21556;55.782;37.528;2023-04-19T12:26:36;100504.69;;;20.27;25.09
35435;BME280;21556;55.782;37.528;2023-04-19T12:29:02;100511.72;;;20.34;24.21
35435;BME280;21556;55.782;37.528;2023-04-19T12:31:29;100500.19;;;20.34;24.17
35435;BME280;21556;55.782;37.528;2023-04-19T12:33:57;100506.03;;;20.68;23.67
35435;BME280;21556;55.782;37.528;2023-04-19T12:36:24;100502.56;;;20.58;24.07
35435;BME280;21556;55.782;37.528;2023-04-19T12:38:50;100501.78;;;20.52;23.71
35435;BME280;21556;55.782;37.528;2023-04-19T12:41:17;100501.69;;;20.59;23.88
35435;BME280;21556;55.782;37.528;2023-04-19T12:43:45;100500.19;;;20.29;23.54
35435;BME280;21556;55.782;37.528;2023-04-19T12:46:13;100499.06;;;20.56;23.53
35435;BME280;21556;55.782;37.528;2023-04-19T12:48:39;100491.69;;;19.93;24.14
35435;BME280;21556;55.782;37.528;2023-04-19T12:51:05;100498.56;;;20.17;23.84
35435;BME280;21556;55.782;37.528;2023-04-19T12:53:32;100497.06;;;19.90;24.15
35435;BME280;21556;55.782;37.528;2023-04-19T12:55:58;100496.50;;;20.42;23.62
35435;BME280;21556;55.782;37.528;2023-04-19T12:58:24;100489.47;;;20.37;23.63
35435;BME280;21556;55.782;37.528;2023-04-19T13:00:52;100488.72;;;20.24;23.89
35435;BME280;21556;55.782;37.528;2023-04-19T13:03:18;100484.31;;;20.20;24.03
35435;BME280;21556;55.782;37.528;2023-04-19T13:05:44;100488.75;;;20.23;23.86
35435;BME280;21556;55.782;37.528;2023-04-19T13:08:10;100486.19;;;20.10;24.42
35435;BME280;21556;55.782;37.528;2023-04-19T13:10:35;100479.22;;;19.97;24.24
35435;BME280;21556;55.782;37.528;2023-04-19T13:13:03;100487.09;;;20.08;23.95
35435;BME280;21556;55.782;37.528;2023-04-19T13:15:30;100479.50;;;19.63;24.53
35435;BME280;21556;55.782;37.528;2023-04-19T13:17:57;100488.97;;;20.00;23.82